This is the latest recevied weather packets stored in our database for station/object IU0SZS-10. If no packets are shown the sender has not sent any weather packets the latest 1 day(s).
| Time | Temp. | Humidity | Pressure | Rain* | Wind** | Luminosity | Snow |
|---|---|---|---|---|---|---|---|
| 1778081478 | 11.67° C | 87% | 913.5 hPa | - | - | - | - |
| 1778080578 | 12.22° C | 75% | 913.5 hPa | - | - | - | - |
| 1778076077 | 12.78° C | 69% | 913.4 hPa | - | - | - | - |
| 1778075177 | 13.33° C | 69% | 913.5 hPa | - | - | - | - |
| 1778071576 | 13.33° C | 71% | 914 hPa | - | - | - | - |
| 1778070676 | 13.33° C | 68% | 913.9 hPa | - | - | - | - |
| 1778069776 | 13.33° C | 66% | 913.7 hPa | - | - | - | - |
| 1778065275 | 12.78° C | 67% | 914 hPa | - | - | - | - |
| 1778064375 | 12.78° C | 70% | 914.2 hPa | - | - | - | - |
| 1778059874 | 11.67° C | 82% | 914.2 hPa | - | - | - | - |
| 1778058974 | 11.11° C | 83% | 914.2 hPa | - | - | - | - |
| 1778058116 | 10.56° C | 83% | 914.2 hPa | - | - | - | - |
| 1778055373 | 10.56° C | 78% | 913.9 hPa | - | - | - | - |
| 1778054473 | 10.56° C | 79% | 913.8 hPa | - | - | - | - |
| 1778053573 | 10° C | 82% | 913.8 hPa | - | - | - | - |
| 1778052673 | 10° C | 81% | 914 hPa | - | - | - | - |
| 1778049972 | 9.44° C | 85% | 914.1 hPa | - | - | - | - |
| 1778049072 | 8.89° C | 86% | 914.1 hPa | - | - | - | - |
| 1778048171 | 8.89° C | 88% | 914.2 hPa | - | - | - | - |
| 1778047271 | 8.89° C | 90% | 914.2 hPa | - | - | - | - |
| 1778046371 | 8.89° C | 89% | 914.1 hPa | - | - | - | - |
| 1778045471 | 8.89° C | 89% | 914.1 hPa | - | - | - | - |
| 1778043670 | 8.89° C | 91% | 914.1 hPa | - | - | - | - |
| 1778042770 | 8.89° C | 92% | 914.2 hPa | - | - | - | - |
| 1778041870 | 8.89° C | 93% | 914.2 hPa | - | - | - | - |
* Rain since midnight (hover to see other rain measurements)
** Current wind speed in m/s (hover to see current wind gust speed)